sensor_id;sensor_type;location;lat;lon;timestamp;pressure;altitude;pressure_sealevel;temperature;humidity
79534;BME280;68982;52.160;6.736;2023-05-29T00:02:14;102131.84;;;12.81;65.09
79534;BME280;68982;52.160;6.736;2023-05-29T00:04:40;102141.84;;;12.64;65.96
79534;BME280;68982;52.160;6.736;2023-05-29T00:07:05;102145.56;;;12.55;66.33
79534;BME280;68982;52.160;6.736;2023-05-29T00:09:31;102148.41;;;12.95;64.82
79534;BME280;68982;52.160;6.736;2023-05-29T00:11:56;102141.34;;;12.61;65.42
79534;BME280;68982;52.160;6.736;2023-05-29T00:14:22;102150.59;;;13.07;65.58
79534;BME280;68982;52.160;6.736;2023-05-29T00:16:49;102154.25;;;13.31;64.87
79534;BME280;68982;52.160;6.736;2023-05-29T00:19:15;102146.72;;;12.69;65.33
79534;BME280;68982;52.160;6.736;2023-05-29T00:21:44;102155.50;;;12.96;65.10
79534;BME280;68982;52.160;6.736;2023-05-29T00:24:15;102146.16;;;13.15;65.15
79534;BME280;68982;52.160;6.736;2023-05-29T00:26:42;102161.97;;;12.70;65.97
79534;BME280;68982;52.160;6.736;2023-05-29T00:29:08;102153.53;;;12.65;66.73
79534;BME280;68982;52.160;6.736;2023-05-29T00:31:33;102158.56;;;13.01;65.34
79534;BME280;68982;52.160;6.736;2023-05-29T00:33:58;102159.91;;;12.80;64.16
79534;BME280;68982;52.160;6.736;2023-05-29T00:36:26;102154.38;;;12.65;65.85
79534;BME280;68982;52.160;6.736;2023-05-29T00:38:51;102152.34;;;12.68;66.29
79534;BME280;68982;52.160;6.736;2023-05-29T00:41:16;102151.66;;;12.49;65.91
79534;BME280;68982;52.160;6.736;2023-05-29T00:43:42;102157.25;;;12.72;67.02
79534;BME280;68982;52.160;6.736;2023-05-29T00:46:09;102150.16;;;12.63;64.90
79534;BME280;68982;52.160;6.736;2023-05-29T00:48:37;102156.06;;;12.83;66.31
79534;BME280;68982;52.160;6.736;2023-05-29T00:51:03;102161.09;;;12.78;65.42
79534;BME280;68982;52.160;6.736;2023-05-29T00:53:29;102151.81;;;12.56;66.19
79534;BME280;68982;52.160;6.736;2023-05-29T00:55:55;102156.56;;;12.37;65.97
79534;BME280;68982;52.160;6.736;2023-05-29T00:58:21;102163.50;;;12.32;67.28
79534;BME280;68982;52.160;6.736;2023-05-29T01:00:46;102155.19;;;12.58;66.46
79534;BME280;68982;52.160;6.736;2023-05-29T01:03:12;102169.94;;;12.39;65.97
79534;BME280;68982;52.160;6.736;2023-05-29T01:05:42;102168.56;;;12.68;66.67
79534;BME280;68982;52.160;6.736;2023-05-29T01:08:09;102171.28;;;12.43;66.67
79534;BME280;68982;52.160;6.736;2023-05-29T01:10:35;102170.25;;;12.36;67.09
79534;BME280;68982;52.160;6.736;2023-05-29T01:13:09;102161.09;;;12.29;66.90
79534;BME280;68982;52.160;6.736;2023-05-29T01:15:46;102169.94;;;12.39;66.44
79534;BME280;68982;52.160;6.736;2023-05-29T01:18:30;102162.28;;;12.26;66.69
79534;BME280;68982;52.160;6.736;2023-05-29T01:21:20;102171.28;;;12.43;65.19
79534;BME280;68982;52.160;6.736;2023-05-29T01:24:14;102178.00;;;12.22;67.24
79534;BME280;68982;52.160;6.736;2023-05-29T01:29:14;102178.72;;;12.41;66.44
79534;BME280;68982;52.160;6.736;2023-05-29T01:31:39;102181.88;;;12.20;66.05
79534;BME280;68982;52.160;6.736;2023-05-29T01:34:07;102188.34;;;12.43;67.53
79534;BME280;68982;52.160;6.736;2023-05-29T01:36:32;102182.22;;;12.17;67.92
79534;BME280;68982;52.160;6.736;2023-05-29T01:38:59;102188.31;;;12.27;65.61
79534;BME280;68982;52.160;6.736;2023-05-29T01:41:25;102181.16;;;11.93;68.36
79534;BME280;68982;52.160;6.736;2023-05-29T01:43:52;102185.94;;;12.08;68.04
79534;BME280;68982;52.160;6.736;2023-05-29T01:46:18;102195.19;;;11.62;67.23
79534;BME280;68982;52.160;6.736;2023-05-29T01:48:44;102184.03;;;11.92;67.69
79534;BME280;68982;52.160;6.736;2023-05-29T01:51:11;102187.16;;;11.87;69.24
79534;BME280;68982;52.160;6.736;2023-05-29T01:53:38;102198.66;;;11.81;68.01
79534;BME280;68982;52.160;6.736;2023-05-29T01:56:05;102187.47;;;12.18;66.86
79534;BME280;68982;52.160;6.736;2023-05-29T01:58:30;102191.66;;;11.96;68.56
79534;BME280;68982;52.160;6.736;2023-05-29T02:00:58;102208.03;;;11.60;67.06
79534;BME280;68982;52.160;6.736;2023-05-29T02:03:23;102203.72;;;11.84;67.26
79534;BME280;68982;52.160;6.736;2023-05-29T02:05:49;102199.38;;;11.91;67.83
79534;BME280;68982;52.160;6.736;2023-05-29T02:08:15;102204.31;;;11.61;67.37
79534;BME280;68982;52.160;6.736;2023-05-29T02:10:40;102208.09;;;11.77;67.68
79534;BME280;68982;52.160;6.736;2023-05-29T02:13:06;102214.59;;;11.58;68.19
79534;BME280;68982;52.160;6.736;2023-05-29T02:15:31;102209.72;;;11.61;68.12
79534;BME280;68982;52.160;6.736;2023-05-29T02:17:56;102211.50;;;11.87;67.30
79534;BME280;68982;52.160;6.736;2023-05-29T02:20:23;102216.06;;;11.87;67.99
79534;BME280;68982;52.160;6.736;2023-05-29T02:22:48;102210.41;;;11.64;68.16
79534;BME280;68982;52.160;6.736;2023-05-29T02:25:14;102207.84;;;11.62;67.30
79534;BME280;68982;52.160;6.736;2023-05-29T02:27:39;102207.84;;;11.62;67.93
79534;BME280;68982;52.160;6.736;2023-05-29T02:30:05;102203.22;;;11.80;67.44
79534;BME280;68982;52.160;6.736;2023-05-29T02:32:31;102209.38;;;11.56;67.87
79534;BME280;68982;52.160;6.736;2023-05-29T02:34:57;102202.78;;;11.59;67.45
79534;BME280;68982;52.160;6.736;2023-05-29T02:37:22;102193.50;;;11.61;67.85
79534;BME280;68982;52.160;6.736;2023-05-29T02:39:50;102187.25;;;11.27;67.71
79534;BME280;68982;52.160;6.736;2023-05-29T02:42:16;102182.22;;;11.32;69.65
79534;BME280;68982;52.160;6.736;2023-05-29T02:44:41;102189.94;;;11.27;68.93
79534;BME280;68982;52.160;6.736;2023-05-29T02:47:06;102195.72;;;11.32;68.39
79534;BME280;68982;52.160;6.736;2023-05-29T02:49:32;102195.59;;;11.41;68.73
79534;BME280;68982;52.160;6.736;2023-05-29T02:51:57;102197.97;;;11.45;67.34
79534;BME280;68982;52.160;6.736;2023-05-29T02:54:23;102195.13;;;11.46;67.76
79534;BME280;68982;52.160;6.736;2023-05-29T02:56:49;102201.41;;;11.89;66.54
79534;BME280;68982;52.160;6.736;2023-05-29T02:59:14;102202.34;;;11.72;68.00
79534;BME280;68982;52.160;6.736;2023-05-29T03:01:39;102198.94;;;11.35;68.27
79534;BME280;68982;52.160;6.736;2023-05-29T03:04:05;102213.25;;;11.28;67.83
79534;BME280;68982;52.160;6.736;2023-05-29T03:06:31;102218.81;;;11.26;67.35
79534;BME280;68982;52.160;6.736;2023-05-29T03:08:57;102221.78;;;11.15;67.40
79534;BME280;68982;52.160;6.736;2023-05-29T03:11:24;102216.97;;;11.01;69.36
79534;BME280;68982;52.160;6.736;2023-05-29T03:13:50;102215.25;;;11.26;67.77
79534;BME280;68982;52.160;6.736;2023-05-29T03:16:15;102210.00;;;10.72;69.99
79534;BME280;68982;52.160;6.736;2023-05-29T03:18:41;102220.00;;;10.79;69.14
79534;BME280;68982;52.160;6.736;2023-05-29T03:21:07;102210.44;;;11.11;68.69
79534;BME280;68982;52.160;6.736;2023-05-29T03:23:32;102210.16;;;11.23;68.77
79534;BME280;68982;52.160;6.736;2023-05-29T03:25:58;102209.31;;;11.48;68.53
79534;BME280;68982;52.160;6.736;2023-05-29T03:28:23;102206.16;;;11.27;68.13
79534;BME280;68982;52.160;6.736;2023-05-29T03:30:48;102200.72;;;11.18;66.73
79534;BME280;68982;52.160;6.736;2023-05-29T03:33:14;102207.84;;;11.28;69.17
79534;BME280;68982;52.160;6.736;2023-05-29T03:35:39;102210.44;;;11.11;68.75
79534;BME280;68982;52.160;6.736;2023-05-29T03:38:04;102206.69;;;11.30;68.74
79534;BME280;68982;52.160;6.736;2023-05-29T03:40:30;102210.63;;;11.44;67.44
79534;BME280;68982;52.160;6.736;2023-05-29T03:42:55;102200.06;;;11.25;67.15
79534;BME280;68982;52.160;6.736;2023-05-29T03:45:21;102206.47;;;11.24;67.88
79534;BME280;68982;52.160;6.736;2023-05-29T03:47:46;102210.00;;;11.24;67.81
79534;BME280;68982;52.160;6.736;2023-05-29T03:50:11;102216.09;;;11.52;67.52
79534;BME280;68982;52.160;6.736;2023-05-29T03:52:40;102212.28;;;11.37;67.87
79534;BME280;68982;52.160;6.736;2023-05-29T03:55:09;102211.66;;;11.43;66.98
79534;BME280;68982;52.160;6.736;2023-05-29T03:57:38;102215.75;;;11.21;68.48
79534;BME280;68982;52.160;6.736;2023-05-29T04:00:07;102223.16;;;11.19;66.98
79534;BME280;68982;52.160;6.736;2023-05-29T04:02:34;102229.13;;;11.57;66.65
79534;BME280;68982;52.160;6.736;2023-05-29T04:05:00;102223.72;;;11.57;66.26
79534;BME280;68982;52.160;6.736;2023-05-29T04:07:25;102222.94;;;11.38;66.50
79534;BME280;68982;52.160;6.736;2023-05-29T04:09:50;102238.19;;;11.48;67.23
79534;BME280;68982;52.160;6.736;2023-05-29T04:12:16;102234.78;;;11.46;68.00
79534;BME280;68982;52.160;6.736;2023-05-29T04:14:41;102239.59;;;11.60;68.05
79534;BME280;68982;52.160;6.736;2023-05-29T04:17:07;102240.97;;;11.64;66.98
79534;BME280;68982;52.160;6.736;2023-05-29T04:19:32;102231.75;;;11.23;66.01
79534;BME280;68982;52.160;6.736;2023-05-29T04:21:58;102237.28;;;11.39;66.78
79534;BME280;68982;52.160;6.736;2023-05-29T04:24:23;102225.75;;;11.29;67.68
79534;BME280;68982;52.160;6.736;2023-05-29T04:26:49;102222.75;;;11.40;66.80
79534;BME280;68982;52.160;6.736;2023-05-29T04:29:16;102226.13;;;11.08;68.97
79534;BME280;68982;52.160;6.736;2023-05-29T04:31:42;102224.81;;;11.12;66.37
79534;BME280;68982;52.160;6.736;2023-05-29T04:34:08;102231.97;;;11.55;67.06
79534;BME280;68982;52.160;6.736;2023-05-29T04:36:34;102236.06;;;11.07;66.46
79534;BME280;68982;52.160;6.736;2023-05-29T04:39:02;102255.31;;;11.65;66.68
79534;BME280;68982;52.160;6.736;2023-05-29T04:41:28;102250.09;;;11.11;67.00
79534;BME280;68982;52.160;6.736;2023-05-29T04:43:57;102258.94;;;11.21;66.99
79534;BME280;68982;52.160;6.736;2023-05-29T04:46:25;102258.13;;;11.29;66.28
79534;BME280;68982;52.160;6.736;2023-05-29T04:48:51;102263.47;;;11.38;66.62
79534;BME280;68982;52.160;6.736;2023-05-29T04:51:20;102257.84;;;11.32;66.90
79534;BME280;68982;52.160;6.736;2023-05-29T04:53:46;102255.84;;;11.16;66.52
79534;BME280;68982;52.160;6.736;2023-05-29T04:56:13;102265.81;;;11.15;67.17
79534;BME280;68982;52.160;6.736;2023-05-29T04:58:40;102271.97;;;11.26;67.36
79534;BME280;68982;52.160;6.736;2023-05-29T05:01:06;102257.38;;;11.36;66.56
79534;BME280;68982;52.160;6.736;2023-05-29T05:03:33;102259.72;;;11.13;68.57
79534;BME280;68982;52.160;6.736;2023-05-29T05:06:02;102258.03;;;11.12;66.19
79534;BME280;68982;52.160;6.736;2023-05-29T05:08:30;102268.72;;;11.22;66.81
79534;BME280;68982;52.160;6.736;2023-05-29T05:10:57;102262.22;;;11.33;66.20
79534;BME280;68982;52.160;6.736;2023-05-29T05:13:23;102275.25;;;11.64;66.35
79534;BME280;68982;52.160;6.736;2023-05-29T05:15:49;102274.16;;;11.04;65.27
79534;BME280;68982;52.160;6.736;2023-05-29T05:18:14;102277.25;;;10.91;66.36
79534;BME280;68982;52.160;6.736;2023-05-29T05:20:40;102280.00;;;11.17;65.22
79534;BME280;68982;52.160;6.736;2023-05-29T05:23:05;102271.84;;;11.35;64.57
79534;BME280;68982;52.160;6.736;2023-05-29T05:25:31;102263.59;;;11.37;64.81
79534;BME280;68982;52.160;6.736;2023-05-29T05:27:59;102277.47;;;11.94;64.04
79534;BME280;68982;52.160;6.736;2023-05-29T05:30:24;102267.69;;;11.75;65.51
79534;BME280;68982;52.160;6.736;2023-05-29T05:32:49;102277.88;;;11.81;65.55
79534;BME280;68982;52.160;6.736;2023-05-29T05:35:15;102277.91;;;11.55;65.91
79534;BME280;68982;52.160;6.736;2023-05-29T05:37:40;102277.81;;;11.73;64.85
79534;BME280;68982;52.160;6.736;2023-05-29T05:40:06;102273.09;;;11.75;64.29
79534;BME280;68982;52.160;6.736;2023-05-29T05:42:33;102275.81;;;11.49;64.92
79534;BME280;68982;52.160;6.736;2023-05-29T05:44:58;102275.38;;;11.28;65.24
79534;BME280;68982;52.160;6.736;2023-05-29T05:47:24;102278.44;;;11.59;64.68
79534;BME280;68982;52.160;6.736;2023-05-29T05:49:49;102285.16;;;11.81;63.43
79534;BME280;68982;52.160;6.736;2023-05-29T05:52:17;102290.34;;;12.09;63.96
79534;BME280;68982;52.160;6.736;2023-05-29T05:54:42;102278.50;;;11.75;63.04
79534;BME280;68982;52.160;6.736;2023-05-29T05:57:08;102284.13;;;11.82;63.70
79534;BME280;68982;52.160;6.736;2023-05-29T05:59:33;102277.28;;;11.88;61.87
79534;BME280;68982;52.160;6.736;2023-05-29T06:01:58;102281.94;;;12.12;62.59
79534;BME280;68982;52.160;6.736;2023-05-29T06:04:24;102276.78;;;12.00;63.37
79534;BME280;68982;52.160;6.736;2023-05-29T06:06:49;102275.34;;;12.14;62.38
79534;BME280;68982;52.160;6.736;2023-05-29T06:09:15;102275.84;;;12.10;61.72
79534;BME280;68982;52.160;6.736;2023-05-29T06:11:40;102280.72;;;12.06;61.60
79534;BME280;68982;52.160;6.736;2023-05-29T06:14:05;102286.63;;;12.01;62.34
79534;BME280;68982;52.160;6.736;2023-05-29T06:16:31;102282.88;;;12.02;63.45
79534;BME280;68982;52.160;6.736;2023-05-29T06:18:56;102290.44;;;12.25;61.47
79534;BME280;68982;52.160;6.736;2023-05-29T06:21:22;102288.28;;;12.02;61.36
79534;BME280;68982;52.160;6.736;2023-05-29T06:23:48;102289.56;;;12.16;60.29
79534;BME280;68982;52.160;6.736;2023-05-29T06:26:14;102283.56;;;12.55;61.23
79534;BME280;68982;52.160;6.736;2023-05-29T06:28:43;102279.53;;;12.84;60.31
79534;BME280;68982;52.160;6.736;2023-05-29T06:31:11;102289.81;;;12.56;60.67
79534;BME280;68982;52.160;6.736;2023-05-29T06:33:36;102297.56;;;12.42;59.24
79534;BME280;68982;52.160;6.736;2023-05-29T06:36:02;102302.28;;;12.40;59.80
79534;BME280;68982;52.160;6.736;2023-05-29T06:38:28;102303.50;;;12.46;59.87
79534;BME280;68982;52.160;6.736;2023-05-29T06:40:53;102292.50;;;12.39;61.00
79534;BME280;68982;52.160;6.736;2023-05-29T06:43:19;102298.41;;;12.35;59.56
79534;BME280;68982;52.160;6.736;2023-05-29T06:45:44;102300.88;;;12.20;59.03
79534;BME280;68982;52.160;6.736;2023-05-29T06:48:09;102301.31;;;12.50;58.98
79534;BME280;68982;52.160;6.736;2023-05-29T06:50:35;102305.88;;;12.57;58.75
79534;BME280;68982;52.160;6.736;2023-05-29T06:53:01;102307.41;;;12.60;58.97
79534;BME280;68982;52.160;6.736;2023-05-29T06:55:26;102305.91;;;12.65;58.07
79534;BME280;68982;52.160;6.736;2023-05-29T06:57:51;102306.09;;;12.72;58.39
79534;BME280;68982;52.160;6.736;2023-05-29T07:00:17;102312.88;;;12.93;58.76
79534;BME280;68982;52.160;6.736;2023-05-29T07:02:43;102310.78;;;12.54;58.96
79534;BME280;68982;52.160;6.736;2023-05-29T07:05:08;102311.22;;;12.92;58.06
79534;BME280;68982;52.160;6.736;2023-05-29T07:07:34;102308.44;;;12.67;57.68
79534;BME280;68982;52.160;6.736;2023-05-29T07:09:59;102313.94;;;13.41;58.13
79534;BME280;68982;52.160;6.736;2023-05-29T07:12:26;102305.41;;;12.70;58.01
79534;BME280;68982;52.160;6.736;2023-05-29T07:14:51;102320.06;;;12.51;59.75
79534;BME280;68982;52.160;6.736;2023-05-29T07:17:16;102315.06;;;12.89;57.69
79534;BME280;68982;52.160;6.736;2023-05-29T07:19:42;102318.28;;;12.76;58.33
79534;BME280;68982;52.160;6.736;2023-05-29T07:22:07;102325.41;;;13.02;57.45
79534;BME280;68982;52.160;6.736;2023-05-29T07:24:33;102314.91;;;13.15;56.92
79534;BME280;68982;52.160;6.736;2023-05-29T07:26:58;102316.81;;;13.39;57.76
79534;BME280;68982;52.160;6.736;2023-05-29T07:29:24;102315.56;;;13.66;56.86
79534;BME280;68982;52.160;6.736;2023-05-29T07:31:50;102318.28;;;13.75;56.00
79534;BME280;68982;52.160;6.736;2023-05-29T07:34:16;102319.31;;;13.65;56.12
79534;BME280;68982;52.160;6.736;2023-05-29T07:37:01;102322.22;;;13.47;55.75
79534;BME280;68982;52.160;6.736;2023-05-29T07:39:27;102321.53;;;13.45;56.26
79534;BME280;68982;52.160;6.736;2023-05-29T07:41:53;102334.16;;;13.86;56.20
79534;BME280;68982;52.160;6.736;2023-05-29T07:44:18;102329.50;;;13.39;55.80
79534;BME280;68982;52.160;6.736;2023-05-29T07:46:45;102330.97;;;13.74;55.11
79534;BME280;68982;52.160;6.736;2023-05-29T07:49:10;102321.13;;;13.89;55.03
79534;BME280;68982;52.160;6.736;2023-05-29T07:51:36;102328.38;;;13.97;54.55
79534;BME280;68982;52.160;6.736;2023-05-29T07:54:02;102324.31;;;13.93;55.64
79534;BME280;68982;52.160;6.736;2023-05-29T07:56:27;102327.41;;;13.74;55.25
79534;BME280;68982;52.160;6.736;2023-05-29T07:58:53;102332.13;;;13.88;53.94
79534;BME280;68982;52.160;6.736;2023-05-29T08:01:20;102336.50;;;13.89;53.97
79534;BME280;68982;52.160;6.736;2023-05-29T08:03:46;102326.63;;;14.04;54.29
79534;BME280;68982;52.160;6.736;2023-05-29T08:06:12;102335.34;;;14.31;54.56
79534;BME280;68982;52.160;6.736;2023-05-29T08:08:38;102335.94;;;14.49;53.04
79534;BME280;68982;52.160;6.736;2023-05-29T08:11:03;102340.59;;;14.72;52.80
79534;BME280;68982;52.160;6.736;2023-05-29T08:13:29;102342.53;;;14.86;52.78
79534;BME280;68982;52.160;6.736;2023-05-29T08:15:56;102346.19;;;14.39;52.56
79534;BME280;68982;52.160;6.736;2023-05-29T08:18:24;102337.56;;;14.67;52.99
79534;BME280;68982;52.160;6.736;2023-05-29T08:20:50;102338.03;;;14.79;51.56
79534;BME280;68982;52.160;6.736;2023-05-29T08:23:15;102340.66;;;14.87;52.01
79534;BME280;68982;52.160;6.736;2023-05-29T08:25:41;102344.63;;;15.22;51.50
79534;BME280;68982;52.160;6.736;2023-05-29T08:28:06;102338.69;;;15.04;51.23
79534;BME280;68982;52.160;6.736;2023-05-29T08:30:31;102347.91;;;14.95;51.95
79534;BME280;68982;52.160;6.736;2023-05-29T08:32:57;102330.03;;;15.00;51.48
79534;BME280;68982;52.160;6.736;2023-05-29T08:35:23;102345.78;;;15.05;50.65
79534;BME280;68982;52.160;6.736;2023-05-29T08:37:48;102344.13;;;14.81;49.36
79534;BME280;68982;52.160;6.736;2023-05-29T08:40:13;102339.75;;;15.18;50.33
79534;BME280;68982;52.160;6.736;2023-05-29T08:42:47;102348.50;;;15.28;50.05
79534;BME280;68982;52.160;6.736;2023-05-29T08:45:18;102340.59;;;15.41;49.99
79534;BME280;68982;52.160;6.736;2023-05-29T08:47:44;102336.59;;;15.52;49.14
79534;BME280;68982;52.160;6.736;2023-05-29T08:50:15;102337.97;;;15.48;48.21
79534;BME280;68982;52.160;6.736;2023-05-29T08:52:41;102341.31;;;15.73;49.00
79534;BME280;68982;52.160;6.736;2023-05-29T08:55:07;102340.66;;;15.71;49.29
79534;BME280;68982;52.160;6.736;2023-05-29T08:57:32;102343.28;;;15.79;47.90
79534;BME280;68982;52.160;6.736;2023-05-29T09:00:00;102340.75;;;15.78;48.62
79534;BME280;68982;52.160;6.736;2023-05-29T09:02:25;102338.22;;;15.91;48.67
79534;BME280;68982;52.160;6.736;2023-05-29T09:04:52;102346.13;;;15.86;49.76
79534;BME280;68982;52.160;6.736;2023-05-29T09:07:19;102336.38;;;15.77;49.07
79534;BME280;68982;52.160;6.736;2023-05-29T09:09:50;102348.66;;;16.02;48.57
79534;BME280;68982;52.160;6.736;2023-05-29T09:12:16;102340.94;;;15.76;48.96
79534;BME280;68982;52.160;6.736;2023-05-29T09:14:43;102339.25;;;15.75;48.86
79534;BME280;68982;52.160;6.736;2023-05-29T09:17:09;102347.97;;;16.00;47.57
79534;BME280;68982;52.160;6.736;2023-05-29T09:19:35;102331.78;;;15.92;47.99
79534;BME280;68982;52.160;6.736;2023-05-29T09:22:19;102336.06;;;16.16;48.17
79534;BME280;68982;52.160;6.736;2023-05-29T09:24:48;102346.75;;;16.32;48.05
79534;BME280;68982;52.160;6.736;2023-05-29T09:27:13;102330.88;;;16.36;48.30
79534;BME280;68982;52.160;6.736;2023-05-29T09:29:40;102332.50;;;16.30;48.88
79534;BME280;68982;52.160;6.736;2023-05-29T09:32:10;102326.38;;;16.65;47.55
79534;BME280;68982;52.160;6.736;2023-05-29T09:34:36;102331.81;;;16.43;46.49
79534;BME280;68982;52.160;6.736;2023-05-29T09:37:03;102330.34;;;16.62;46.50
79534;BME280;68982;52.160;6.736;2023-05-29T09:42:07;102334.88;;;16.91;45.33
79534;BME280;68982;52.160;6.736;2023-05-29T09:44:32;102337.88;;;16.96;46.10
79534;BME280;68982;52.160;6.736;2023-05-29T09:46:59;102345.91;;;17.05;45.53
79534;BME280;68982;52.160;6.736;2023-05-29T09:49:25;102339.69;;;17.11;46.38
79534;BME280;68982;52.160;6.736;2023-05-29T09:51:55;102341.28;;;17.27;45.39
79534;BME280;68982;52.160;6.736;2023-05-29T09:54:21;102342.06;;;17.20;46.05
79534;BME280;68982;52.160;6.736;2023-05-29T09:56:47;102348.91;;;16.88;45.83
79534;BME280;68982;52.160;6.736;2023-05-29T09:59:15;102340.00;;;17.23;45.88
79534;BME280;68982;52.160;6.736;2023-05-29T10:01:43;102338.13;;;17.23;46.02
79534;BME280;68982;52.160;6.736;2023-05-29T10:04:12;102334.97;;;17.48;44.37
79534;BME280;68982;52.160;6.736;2023-05-29T10:06:42;102337.47;;;16.99;44.41
79534;BME280;68982;52.160;6.736;2023-05-29T10:09:12;102331.34;;;17.40;44.31
79534;BME280;68982;52.160;6.736;2023-05-29T10:11:42;102326.47;;;17.64;44.45
79534;BME280;68982;52.160;6.736;2023-05-29T10:14:09;102326.63;;;17.56;42.95
79534;BME280;68982;52.160;6.736;2023-05-29T10:16:41;102322.78;;;17.44;43.98
79534;BME280;68982;52.160;6.736;2023-05-29T10:19:12;102320.84;;;17.66;44.00
79534;BME280;68982;52.160;6.736;2023-05-29T10:21:39;102324.56;;;17.86;43.45
79534;BME280;68982;52.160;6.736;2023-05-29T10:24:06;102323.59;;;17.44;43.13
79534;BME280;68982;52.160;6.736;2023-05-29T10:26:36;102322.38;;;17.47;44.31
79534;BME280;68982;52.160;6.736;2023-05-29T10:29:11;102327.41;;;17.78;43.38
79534;BME280;68982;52.160;6.736;2023-05-29T10:40:06;102310.84;;;17.51;41.61
79534;BME280;68982;52.160;6.736;2023-05-29T10:42:41;102321.97;;;18.13;42.20
79534;BME280;68982;52.160;6.736;2023-05-29T10:45:08;102323.38;;;18.43;42.05
79534;BME280;68982;52.160;6.736;2023-05-29T10:47:33;102321.59;;;18.22;42.24
79534;BME280;68982;52.160;6.736;2023-05-29T10:50:00;102312.72;;;18.14;39.92
79534;BME280;68982;52.160;6.736;2023-05-29T10:52:26;102320.31;;;18.18;40.24
79534;BME280;68982;52.160;6.736;2023-05-29T10:54:53;102321.97;;;18.13;39.53
79534;BME280;68982;52.160;6.736;2023-05-29T10:57:21;102320.88;;;17.72;39.75
79534;BME280;68982;52.160;6.736;2023-05-29T10:59:47;102317.56;;;17.77;41.52
79534;BME280;68982;52.160;6.736;2023-05-29T11:02:17;102312.81;;;17.86;40.22
79534;BME280;68982;52.160;6.736;2023-05-29T11:04:43;102316.28;;;18.08;41.36
79534;BME280;68982;52.160;6.736;2023-05-29T11:07:32;102308.28;;;18.06;39.30
79534;BME280;68982;52.160;6.736;2023-05-29T11:10:11;102312.16;;;17.84;38.75
79534;BME280;68982;52.160;6.736;2023-05-29T11:12:56;102309.78;;;18.09;38.48
79534;BME280;68982;52.160;6.736;2023-05-29T11:15:21;102313.97;;;18.11;38.25
79534;BME280;68982;52.160;6.736;2023-05-29T11:17:46;102306.28;;;18.28;39.20
79534;BME280;68982;52.160;6.736;2023-05-29T11:20:35;102306.56;;;18.47;39.57
79534;BME280;68982;52.160;6.736;2023-05-29T11:23:07;102302.84;;;18.61;39.61
79534;BME280;68982;52.160;6.736;2023-05-29T11:25:35;102306.63;;;18.67;38.24
79534;BME280;68982;52.160;6.736;2023-05-29T11:28:01;102313.34;;;18.64;38.22
79534;BME280;68982;52.160;6.736;2023-05-29T11:30:29;102312.47;;;18.50;37.86
79534;BME280;68982;52.160;6.736;2023-05-29T11:32:58;102306.09;;;18.30;38.54
79534;BME280;68982;52.160;6.736;2023-05-29T11:35:29;102299.56;;;18.31;38.32
79534;BME280;68982;52.160;6.736;2023-05-29T11:37:56;102307.59;;;18.39;38.54
79534;BME280;68982;52.160;6.736;2023-05-29T11:40:23;102306.88;;;18.78;37.89
79534;BME280;68982;52.160;6.736;2023-05-29T11:42:48;102299.06;;;18.69;37.80
79534;BME280;68982;52.160;6.736;2023-05-29T11:45:21;102309.56;;;18.72;37.99
79534;BME280;68982;52.160;6.736;2023-05-29T11:47:58;102301.09;;;18.47;36.63
79534;BME280;68982;52.160;6.736;2023-05-29T11:50:33;102315.00;;;18.65;37.24
79534;BME280;68982;52.160;6.736;2023-05-29T11:53:06;102310.69;;;18.84;36.96
79534;BME280;68982;52.160;6.736;2023-05-29T11:55:33;102305.94;;;18.51;37.37
79534;BME280;68982;52.160;6.736;2023-05-29T11:58:03;102304.31;;;18.09;37.19
79534;BME280;68982;52.160;6.736;2023-05-29T12:00:36;102298.97;;;18.35;36.89
79534;BME280;68982;52.160;6.736;2023-05-29T12:03:03;102306.31;;;18.35;37.85
79534;BME280;68982;52.160;6.736;2023-05-29T12:05:32;102300.28;;;18.53;37.48
79534;BME280;68982;52.160;6.736;2023-05-29T12:07:58;102305.56;;;18.54;37.86
79534;BME280;68982;52.160;6.736;2023-05-29T12:10:27;102299.25;;;18.74;36.30
79534;BME280;68982;52.160;6.736;2023-05-29T12:12:54;102308.41;;;19.21;36.30
79534;BME280;68982;52.160;6.736;2023-05-29T12:15:21;102299.97;;;19.09;36.33
79534;BME280;68982;52.160;6.736;2023-05-29T12:17:50;102295.94;;;18.78;36.44
79534;BME280;68982;52.160;6.736;2023-05-29T12:20:17;102293.03;;;18.93;35.16
79534;BME280;68982;52.160;6.736;2023-05-29T12:22:44;102287.06;;;18.63;35.15
79534;BME280;68982;52.160;6.736;2023-05-29T12:25:11;102290.94;;;19.09;35.33
79534;BME280;68982;52.160;6.736;2023-05-29T12:27:38;102296.59;;;19.27;34.29
79534;BME280;68982;52.160;6.736;2023-05-29T12:30:11;102291.75;;;19.49;35.40
79534;BME280;68982;52.160;6.736;2023-05-29T12:32:38;102295.03;;;19.98;32.20
79534;BME280;68982;52.160;6.736;2023-05-29T12:35:16;102286.47;;;19.67;33.32
79534;BME280;68982;52.160;6.736;2023-05-29T12:37:46;102286.88;;;19.64;36.01
79534;BME280;68982;52.160;6.736;2023-05-29T12:40:21;102284.34;;;19.63;35.03
79534;BME280;68982;52.160;6.736;2023-05-29T12:42:48;102275.13;;;19.44;35.51
79534;BME280;68982;52.160;6.736;2023-05-29T12:45:14;102283.31;;;19.64;34.45
79534;BME280;68982;52.160;6.736;2023-05-29T12:48:01;102297.19;;;19.82;34.24
79534;BME280;68982;52.160;6.736;2023-05-29T12:50:29;102285.66;;;19.40;34.92
79534;BME280;68982;52.160;6.736;2023-05-29T12:53:00;102294.72;;;19.41;35.77
79534;BME280;68982;52.160;6.736;2023-05-29T12:55:27;102297.84;;;19.78;36.39
79534;BME280;68982;52.160;6.736;2023-05-29T12:57:54;102280.78;;;19.56;35.83
79534;BME280;68982;52.160;6.736;2023-05-29T13:00:20;102286.81;;;19.98;36.47
79534;BME280;68982;52.160;6.736;2023-05-29T13:02:47;102288.69;;;20.04;34.59
79534;BME280;68982;52.160;6.736;2023-05-29T13:05:13;102288.06;;;20.02;36.27